sensor_id;sensor_type;location;lat;lon;timestamp;P1;durP1;ratioP1;P2;durP2;ratioP2
17854;SDS011;9053;53.358;6.382;2023-03-23T00:00:53;2.40;;;1.90;;
17854;SDS011;9053;53.358;6.382;2023-03-23T00:03:23;2.37;;;2.00;;
17854;SDS011;9053;53.358;6.382;2023-03-23T00:05:55;2.90;;;1.70;;
17854;SDS011;9053;53.358;6.382;2023-03-23T00:08:25;2.63;;;2.30;;
17854;SDS011;9053;53.358;6.382;2023-03-23T00:10:58;2.67;;;2.13;;
17854;SDS011;9053;53.358;6.382;2023-03-23T00:13:30;3.40;;;2.53;;
17854;SDS011;9053;53.358;6.382;2023-03-23T00:16:00;3.77;;;3.23;;
17854;SDS011;9053;53.358;6.382;2023-03-23T00:18:30;4.80;;;3.73;;
17854;SDS011;9053;53.358;6.382;2023-03-23T00:21:02;4.30;;;3.90;;
17854;SDS011;9053;53.358;6.382;2023-03-23T00:23:33;5.10;;;4.63;;
17854;SDS011;9053;53.358;6.382;2023-03-23T00:26:07;6.13;;;5.03;;
17854;SDS011;9053;53.358;6.382;2023-03-23T00:28:38;5.30;;;4.70;;
17854;SDS011;9053;53.358;6.382;2023-03-23T00:31:09;6.90;;;5.27;;
17854;SDS011;9053;53.358;6.382;2023-03-23T00:33:39;6.53;;;5.03;;
17854;SDS011;9053;53.358;6.382;2023-03-23T00:36:10;6.37;;;5.27;;
17854;SDS011;9053;53.358;6.382;2023-03-23T00:38:43;6.47;;;5.13;;
17854;SDS011;9053;53.358;6.382;2023-03-23T00:41:16;5.90;;;5.10;;
17854;SDS011;9053;53.358;6.382;2023-03-23T00:43:47;5.60;;;5.00;;
17854;SDS011;9053;53.358;6.382;2023-03-23T00:46:18;6.03;;;5.37;;
17854;SDS011;9053;53.358;6.382;2023-03-23T00:48:50;6.97;;;6.27;;
17854;SDS011;9053;53.358;6.382;2023-03-23T00:51:20;8.80;;;6.67;;
17854;SDS011;9053;53.358;6.382;2023-03-23T00:53:51;11.47;;;7.93;;
17854;SDS011;9053;53.358;6.382;2023-03-23T00:56:25;10.10;;;8.53;;
17854;SDS011;9053;53.358;6.382;2023-03-23T00:58:55;12.90;;;10.97;;
17854;SDS011;9053;53.358;6.382;2023-03-23T01:01:25;12.87;;;10.23;;
17854;SDS011;9053;53.358;6.382;2023-03-23T01:03:55;12.10;;;10.67;;
17854;SDS011;9053;53.358;6.382;2023-03-23T01:06:28;14.53;;;12.77;;
17854;SDS011;9053;53.358;6.382;2023-03-23T01:08:58;14.83;;;11.87;;
17854;SDS011;9053;53.358;6.382;2023-03-23T01:11:31;16.77;;;11.30;;
17854;SDS011;9053;53.358;6.382;2023-03-23T01:14:01;13.03;;;10.50;;
17854;SDS011;9053;53.358;6.382;2023-03-23T01:16:31;16.37;;;11.60;;
17854;SDS011;9053;53.358;6.382;2023-03-23T01:19:02;14.63;;;11.57;;
17854;SDS011;9053;53.358;6.382;2023-03-23T01:21:32;12.20;;;10.67;;
17854;SDS011;9053;53.358;6.382;2023-03-23T01:24:02;11.87;;;10.57;;
17854;SDS011;9053;53.358;6.382;2023-03-23T01:26:38;12.47;;;10.70;;
17854;SDS011;9053;53.358;6.382;2023-03-23T01:29:08;13.50;;;10.03;;
17854;SDS011;9053;53.358;6.382;2023-03-23T01:31:38;11.63;;;9.77;;
17854;SDS011;9053;53.358;6.382;2023-03-23T01:34:09;10.63;;;8.90;;
17854;SDS011;9053;53.358;6.382;2023-03-23T01:36:39;10.03;;;8.43;;
17854;SDS011;9053;53.358;6.382;2023-03-23T01:39:09;12.20;;;8.57;;
17854;SDS011;9053;53.358;6.382;2023-03-23T01:41:43;10.27;;;8.03;;
17854;SDS011;9053;53.358;6.382;2023-03-23T01:47:14;9.73;;;7.33;;
17854;SDS011;9053;53.358;6.382;2023-03-23T01:49:45;8.80;;;7.10;;
17854;SDS011;9053;53.358;6.382;2023-03-23T01:52:18;8.40;;;6.20;;
17854;SDS011;9053;53.358;6.382;2023-03-23T01:54:52;8.07;;;5.87;;
17854;SDS011;9053;53.358;6.382;2023-03-23T01:57:27;7.70;;;6.00;;
17854;SDS011;9053;53.358;6.382;2023-03-23T02:00:01;8.27;;;6.70;;
17854;SDS011;9053;53.358;6.382;2023-03-23T02:02:41;7.87;;;5.93;;
17854;SDS011;9053;53.358;6.382;2023-03-23T02:05:13;7.33;;;6.33;;
17854;SDS011;9053;53.358;6.382;2023-03-23T02:07:46;8.83;;;6.53;;
17854;SDS011;9053;53.358;6.382;2023-03-23T02:10:18;7.93;;;6.47;;
17854;SDS011;9053;53.358;6.382;2023-03-23T02:12:51;6.90;;;6.20;;
17854;SDS011;9053;53.358;6.382;2023-03-23T02:15:21;6.10;;;5.47;;
17854;SDS011;9053;53.358;6.382;2023-03-23T02:17:55;9.23;;;6.80;;
17854;SDS011;9053;53.358;6.382;2023-03-23T02:23:42;8.47;;;6.77;;
17854;SDS011;9053;53.358;6.382;2023-03-23T02:26:29;9.90;;;6.60;;
17854;SDS011;9053;53.358;6.382;2023-03-23T02:29:16;11.17;;;6.77;;
17854;SDS011;9053;53.358;6.382;2023-03-23T02:32:04;9.10;;;7.10;;
17854;SDS011;9053;53.358;6.382;2023-03-23T02:34:43;11.87;;;6.63;;
17854;SDS011;9053;53.358;6.382;2023-03-23T02:37:19;9.57;;;7.23;;
17854;SDS011;9053;53.358;6.382;2023-03-23T02:39:55;10.20;;;7.27;;
17854;SDS011;9053;53.358;6.382;2023-03-23T02:42:33;10.50;;;6.90;;
17854;SDS011;9053;53.358;6.382;2023-03-23T02:45:06;9.07;;;6.80;;
17854;SDS011;9053;53.358;6.382;2023-03-23T02:47:40;10.97;;;6.80;;
17854;SDS011;9053;53.358;6.382;2023-03-23T02:50:17;9.13;;;6.60;;
17854;SDS011;9053;53.358;6.382;2023-03-23T03:02:00;8.97;;;7.50;;
17854;SDS011;9053;53.358;6.382;2023-03-23T03:04:34;11.63;;;6.20;;
17854;SDS011;9053;53.358;6.382;2023-03-23T03:10:16;8.50;;;5.23;;
17854;SDS011;9053;53.358;6.382;2023-03-23T03:12:51;7.83;;;5.27;;
17854;SDS011;9053;53.358;6.382;2023-03-23T03:15:27;8.57;;;5.57;;
17854;SDS011;9053;53.358;6.382;2023-03-23T03:18:03;6.90;;;5.67;;
17854;SDS011;9053;53.358;6.382;2023-03-23T03:20:40;7.93;;;5.67;;
17854;SDS011;9053;53.358;6.382;2023-03-23T03:23:17;10.60;;;5.67;;
17854;SDS011;9053;53.358;6.382;2023-03-23T03:25:50;9.67;;;5.40;;
17854;SDS011;9053;53.358;6.382;2023-03-23T03:28:25;9.13;;;5.70;;
17854;SDS011;9053;53.358;6.382;2023-03-23T03:30:56;9.03;;;5.50;;
17854;SDS011;9053;53.358;6.382;2023-03-23T03:33:30;7.17;;;5.17;;
17854;SDS011;9053;53.358;6.382;2023-03-23T03:36:01;7.83;;;5.23;;
17854;SDS011;9053;53.358;6.382;2023-03-23T03:38:45;10.17;;;5.53;;
17854;SDS011;9053;53.358;6.382;2023-03-23T03:41:17;7.20;;;5.37;;
17854;SDS011;9053;53.358;6.382;2023-03-23T03:43:47;10.93;;;5.40;;
17854;SDS011;9053;53.358;6.382;2023-03-23T03:46:18;9.43;;;5.27;;
17854;SDS011;9053;53.358;6.382;2023-03-23T03:48:51;8.17;;;5.40;;
17854;SDS011;9053;53.358;6.382;2023-03-23T03:51:21;9.33;;;4.67;;
17854;SDS011;9053;53.358;6.382;2023-03-23T03:53:55;8.27;;;4.97;;
17854;SDS011;9053;53.358;6.382;2023-03-23T03:56:26;7.67;;;5.23;;
17854;SDS011;9053;53.358;6.382;2023-03-23T03:58:58;6.50;;;4.80;;
17854;SDS011;9053;53.358;6.382;2023-03-23T04:01:48;10.33;;;4.40;;
17854;SDS011;9053;53.358;6.382;2023-03-23T04:04:22;6.67;;;4.40;;
17854;SDS011;9053;53.358;6.382;2023-03-23T04:06:56;9.10;;;4.90;;
17854;SDS011;9053;53.358;6.382;2023-03-23T04:09:31;7.83;;;5.70;;
17854;SDS011;9053;53.358;6.382;2023-03-23T04:12:01;9.77;;;5.57;;
17854;SDS011;9053;53.358;6.382;2023-03-23T04:14:32;6.70;;;4.87;;
17854;SDS011;9053;53.358;6.382;2023-03-23T04:17:02;8.63;;;5.00;;
17854;SDS011;9053;53.358;6.382;2023-03-23T04:19:33;8.07;;;4.77;;
17854;SDS011;9053;53.358;6.382;2023-03-23T04:22:05;5.77;;;4.27;;
17854;SDS011;9053;53.358;6.382;2023-03-23T04:24:37;7.30;;;4.53;;
17854;SDS011;9053;53.358;6.382;2023-03-23T04:27:22;10.87;;;4.67;;
17854;SDS011;9053;53.358;6.382;2023-03-23T04:29:54;7.93;;;4.43;;
17854;SDS011;9053;53.358;6.382;2023-03-23T04:32:25;10.07;;;4.53;;
17854;SDS011;9053;53.358;6.382;2023-03-23T04:34:57;6.10;;;4.03;;
17854;SDS011;9053;53.358;6.382;2023-03-23T04:37:39;9.70;;;4.43;;
17854;SDS011;9053;53.358;6.382;2023-03-23T04:40:12;7.77;;;4.60;;
17854;SDS011;9053;53.358;6.382;2023-03-23T04:42:43;8.03;;;3.73;;
17854;SDS011;9053;53.358;6.382;2023-03-23T04:45:16;10.00;;;3.90;;
17854;SDS011;9053;53.358;6.382;2023-03-23T04:47:49;8.83;;;3.97;;
17854;SDS011;9053;53.358;6.382;2023-03-23T04:50:24;7.70;;;2.83;;
17854;SDS011;9053;53.358;6.382;2023-03-23T04:52:57;4.80;;;2.80;;
17854;SDS011;9053;53.358;6.382;2023-03-23T04:55:33;7.53;;;2.83;;
17854;SDS011;9053;53.358;6.382;2023-03-23T04:58:06;9.40;;;3.20;;
17854;SDS011;9053;53.358;6.382;2023-03-23T05:00:36;6.80;;;2.90;;
17854;SDS011;9053;53.358;6.382;2023-03-23T05:03:07;8.23;;;2.80;;
17854;SDS011;9053;53.358;6.382;2023-03-23T05:05:37;6.67;;;3.00;;
17854;SDS011;9053;53.358;6.382;2023-03-23T05:08:07;10.57;;;3.33;;
17854;SDS011;9053;53.358;6.382;2023-03-23T05:10:40;9.27;;;3.27;;
17854;SDS011;9053;53.358;6.382;2023-03-23T05:13:13;11.17;;;3.97;;
17854;SDS011;9053;53.358;6.382;2023-03-23T05:15:43;9.23;;;2.90;;
17854;SDS011;9053;53.358;6.382;2023-03-23T05:18:15;11.53;;;3.57;;
17854;SDS011;9053;53.358;6.382;2023-03-23T05:20:46;8.00;;;3.07;;
17854;SDS011;9053;53.358;6.382;2023-03-23T05:23:19;12.17;;;3.73;;
17854;SDS011;9053;53.358;6.382;2023-03-23T05:25:57;15.37;;;3.40;;
17854;SDS011;9053;53.358;6.382;2023-03-23T05:28:29;12.67;;;3.57;;
17854;SDS011;9053;53.358;6.382;2023-03-23T05:30:59;12.23;;;3.60;;
17854;SDS011;9053;53.358;6.382;2023-03-23T05:33:29;14.50;;;3.40;;
17854;SDS011;9053;53.358;6.382;2023-03-23T05:35:59;14.00;;;3.43;;
17854;SDS011;9053;53.358;6.382;2023-03-23T05:38:30;14.27;;;3.70;;
17854;SDS011;9053;53.358;6.382;2023-03-23T05:41:03;14.30;;;3.80;;
17854;SDS011;9053;53.358;6.382;2023-03-23T05:43:36;15.23;;;3.67;;
17854;SDS011;9053;53.358;6.382;2023-03-23T05:46:06;14.70;;;4.27;;
17854;SDS011;9053;53.358;6.382;2023-03-23T05:48:36;13.93;;;3.63;;
17854;SDS011;9053;53.358;6.382;2023-03-23T05:51:06;16.87;;;3.63;;
17854;SDS011;9053;53.358;6.382;2023-03-23T05:53:36;15.70;;;3.70;;
17854;SDS011;9053;53.358;6.382;2023-03-23T05:56:09;10.30;;;3.50;;
17854;SDS011;9053;53.358;6.382;2023-03-23T05:58:39;14.50;;;4.57;;
17854;SDS011;9053;53.358;6.382;2023-03-23T06:01:08;19.73;;;5.87;;
17854;SDS011;9053;53.358;6.382;2023-03-23T06:03:43;18.80;;;4.30;;
17854;SDS011;9053;53.358;6.382;2023-03-23T06:06:15;11.97;;;4.03;;
17854;SDS011;9053;53.358;6.382;2023-03-23T06:08:46;18.53;;;3.70;;
17854;SDS011;9053;53.358;6.382;2023-03-23T06:11:19;12.73;;;3.93;;
17854;SDS011;9053;53.358;6.382;2023-03-23T06:13:50;17.53;;;3.57;;
17854;SDS011;9053;53.358;6.382;2023-03-23T06:16:20;14.43;;;3.83;;
17854;SDS011;9053;53.358;6.382;2023-03-23T06:18:50;15.93;;;4.20;;
17854;SDS011;9053;53.358;6.382;2023-03-23T06:21:20;18.33;;;4.23;;
17854;SDS011;9053;53.358;6.382;2023-03-23T06:23:53;18.80;;;4.13;;
17854;SDS011;9053;53.358;6.382;2023-03-23T06:26:27;14.67;;;3.67;;
17854;SDS011;9053;53.358;6.382;2023-03-23T06:29:00;11.80;;;3.30;;
17854;SDS011;9053;53.358;6.382;2023-03-23T06:31:37;9.93;;;2.53;;
17854;SDS011;9053;53.358;6.382;2023-03-23T06:34:09;8.33;;;2.30;;
17854;SDS011;9053;53.358;6.382;2023-03-23T06:36:39;7.83;;;2.50;;
17854;SDS011;9053;53.358;6.382;2023-03-23T06:39:10;9.13;;;2.90;;
17854;SDS011;9053;53.358;6.382;2023-03-23T06:41:43;13.33;;;2.57;;
17854;SDS011;9053;53.358;6.382;2023-03-23T06:44:13;10.07;;;2.43;;
17854;SDS011;9053;53.358;6.382;2023-03-23T06:46:43;9.90;;;1.97;;
17854;SDS011;9053;53.358;6.382;2023-03-23T06:49:14;5.77;;;2.23;;
17854;SDS011;9053;53.358;6.382;2023-03-23T06:51:46;7.70;;;2.33;;
17854;SDS011;9053;53.358;6.382;2023-03-23T06:54:16;8.53;;;2.57;;
17854;SDS011;9053;53.358;6.382;2023-03-23T06:56:49;8.43;;;2.20;;
17854;SDS011;9053;53.358;6.382;2023-03-23T06:59:20;7.07;;;2.63;;
17854;SDS011;9053;53.358;6.382;2023-03-23T07:01:50;8.67;;;2.90;;
17854;SDS011;9053;53.358;6.382;2023-03-23T07:04:20;7.43;;;2.67;;
17854;SDS011;9053;53.358;6.382;2023-03-23T07:06:50;10.87;;;2.87;;
17854;SDS011;9053;53.358;6.382;2023-03-23T07:09:20;10.10;;;2.50;;
17854;SDS011;9053;53.358;6.382;2023-03-23T07:12:10;10.80;;;2.40;;
17854;SDS011;9053;53.358;6.382;2023-03-23T07:14:40;9.03;;;2.67;;
17854;SDS011;9053;53.358;6.382;2023-03-23T07:17:10;10.60;;;2.70;;
17854;SDS011;9053;53.358;6.382;2023-03-23T07:19:40;12.87;;;2.70;;
17854;SDS011;9053;53.358;6.382;2023-03-23T07:22:11;9.03;;;2.60;;
17854;SDS011;9053;53.358;6.382;2023-03-23T07:24:41;9.90;;;3.00;;
17854;SDS011;9053;53.358;6.382;2023-03-23T07:27:14;12.47;;;3.43;;
17854;SDS011;9053;53.358;6.382;2023-03-23T07:29:44;11.83;;;3.03;;
17854;SDS011;9053;53.358;6.382;2023-03-23T07:32:14;14.73;;;4.40;;
17854;SDS011;9053;53.358;6.382;2023-03-23T07:34:44;9.17;;;3.13;;
17854;SDS011;9053;53.358;6.382;2023-03-23T07:40:40;17.03;;;3.90;;
17854;SDS011;9053;53.358;6.382;2023-03-23T07:43:13;20.33;;;4.20;;
17854;SDS011;9053;53.358;6.382;2023-03-23T07:45:43;19.60;;;4.53;;
17854;SDS011;9053;53.358;6.382;2023-03-23T07:48:12;17.00;;;4.50;;
17854;SDS011;9053;53.358;6.382;2023-03-23T07:50:46;18.23;;;4.90;;
17854;SDS011;9053;53.358;6.382;2023-03-23T07:53:16;23.47;;;5.30;;
17854;SDS011;9053;53.358;6.382;2023-03-23T07:55:54;18.80;;;4.93;;
17854;SDS011;9053;53.358;6.382;2023-03-23T07:58:27;26.33;;;5.43;;
17854;SDS011;9053;53.358;6.382;2023-03-23T08:01:00;18.53;;;5.03;;
17854;SDS011;9053;53.358;6.382;2023-03-23T08:03:44;20.77;;;4.50;;
17854;SDS011;9053;53.358;6.382;2023-03-23T08:06:26;22.10;;;5.60;;
17854;SDS011;9053;53.358;6.382;2023-03-23T08:09:01;19.20;;;5.03;;
17854;SDS011;9053;53.358;6.382;2023-03-23T08:11:34;19.83;;;4.80;;
17854;SDS011;9053;53.358;6.382;2023-03-23T08:14:07;17.30;;;4.87;;
17854;SDS011;9053;53.358;6.382;2023-03-23T08:16:40;24.23;;;4.87;;
17854;SDS011;9053;53.358;6.382;2023-03-23T08:19:10;24.57;;;5.87;;
17854;SDS011;9053;53.358;6.382;2023-03-23T08:21:40;22.83;;;4.90;;
17854;SDS011;9053;53.358;6.382;2023-03-23T08:24:10;22.63;;;4.83;;
17854;SDS011;9053;53.358;6.382;2023-03-23T08:26:41;16.57;;;4.60;;
17854;SDS011;9053;53.358;6.382;2023-03-23T08:29:14;16.17;;;4.53;;
17854;SDS011;9053;53.358;6.382;2023-03-23T08:31:44;19.27;;;5.07;;
17854;SDS011;9053;53.358;6.382;2023-03-23T08:34:33;25.10;;;5.70;;
17854;SDS011;9053;53.358;6.382;2023-03-23T08:37:08;17.63;;;4.67;;
17854;SDS011;9053;53.358;6.382;2023-03-23T08:39:38;24.63;;;5.50;;
17854;SDS011;9053;53.358;6.382;2023-03-23T08:42:09;20.30;;;5.17;;
17854;SDS011;9053;53.358;6.382;2023-03-23T08:44:43;20.30;;;5.70;;
17854;SDS011;9053;53.358;6.382;2023-03-23T08:47:13;21.13;;;5.40;;
17854;SDS011;9053;53.358;6.382;2023-03-23T08:49:44;22.27;;;4.67;;
17854;SDS011;9053;53.358;6.382;2023-03-23T08:52:26;22.40;;;4.70;;
17854;SDS011;9053;53.358;6.382;2023-03-23T08:54:57;18.80;;;4.87;;
17854;SDS011;9053;53.358;6.382;2023-03-23T08:57:30;18.67;;;5.20;;
17854;SDS011;9053;53.358;6.382;2023-03-23T09:00:04;21.03;;;5.53;;
17854;SDS011;9053;53.358;6.382;2023-03-23T09:02:43;17.57;;;4.77;;
17854;SDS011;9053;53.358;6.382;2023-03-23T09:05:15;17.47;;;4.53;;
17854;SDS011;9053;53.358;6.382;2023-03-23T09:07:48;17.17;;;4.63;;
17854;SDS011;9053;53.358;6.382;2023-03-23T09:10:20;20.10;;;6.07;;
17854;SDS011;9053;53.358;6.382;2023-03-23T09:12:56;18.77;;;5.37;;
17854;SDS011;9053;53.358;6.382;2023-03-23T09:15:29;18.57;;;4.80;;
17854;SDS011;9053;53.358;6.382;2023-03-23T09:18:12;18.27;;;5.43;;
17854;SDS011;9053;53.358;6.382;2023-03-23T09:20:42;21.83;;;5.00;;
17854;SDS011;9053;53.358;6.382;2023-03-23T09:23:15;22.47;;;5.47;;
17854;SDS011;9053;53.358;6.382;2023-03-23T09:25:46;23.17;;;5.43;;
17854;SDS011;9053;53.358;6.382;2023-03-23T09:28:17;19.97;;;5.17;;
17854;SDS011;9053;53.358;6.382;2023-03-23T09:30:50;21.00;;;4.87;;
17854;SDS011;9053;53.358;6.382;2023-03-23T09:33:23;18.13;;;4.80;;
17854;SDS011;9053;53.358;6.382;2023-03-23T09:35:55;16.60;;;5.03;;
17854;SDS011;9053;53.358;6.382;2023-03-23T09:38:25;22.47;;;4.83;;
17854;SDS011;9053;53.358;6.382;2023-03-23T09:41:00;18.10;;;4.93;;
17854;SDS011;9053;53.358;6.382;2023-03-23T09:44:03;15.63;;;4.70;;
17854;SDS011;9053;53.358;6.382;2023-03-23T09:46:48;21.63;;;4.60;;
17854;SDS011;9053;53.358;6.382;2023-03-23T09:49:25;17.40;;;4.67;;
17854;SDS011;9053;53.358;6.382;2023-03-23T09:52:08;20.50;;;5.20;;
17854;SDS011;9053;53.358;6.382;2023-03-23T09:54:45;18.47;;;5.07;;
17854;SDS011;9053;53.358;6.382;2023-03-23T09:57:19;17.10;;;4.70;;
17854;SDS011;9053;53.358;6.382;2023-03-23T09:59:55;22.20;;;5.40;;
17854;SDS011;9053;53.358;6.382;2023-03-23T10:02:34;18.20;;;5.10;;
17854;SDS011;9053;53.358;6.382;2023-03-23T10:05:16;15.13;;;4.63;;
17854;SDS011;9053;53.358;6.382;2023-03-23T10:07:54;18.57;;;4.97;;
17854;SDS011;9053;53.358;6.382;2023-03-23T10:10:26;17.70;;;5.00;;
17854;SDS011;9053;53.358;6.382;2023-03-23T10:13:09;18.07;;;5.37;;
17854;SDS011;9053;53.358;6.382;2023-03-23T10:15:44;20.43;;;4.67;;
17854;SDS011;9053;53.358;6.382;2023-03-23T10:18:20;16.03;;;4.20;;
17854;SDS011;9053;53.358;6.382;2023-03-23T10:20:55;21.53;;;4.67;;
17854;SDS011;9053;53.358;6.382;2023-03-23T10:26:37;18.27;;;5.33;;
17854;SDS011;9053;53.358;6.382;2023-03-23T10:29:16;19.13;;;4.87;;
17854;SDS011;9053;53.358;6.382;2023-03-23T10:31:51;19.42;;;4.40;;
17854;SDS011;9053;53.358;6.382;2023-03-23T10:34:29;16.00;;;4.33;;
17854;SDS011;9053;53.358;6.382;2023-03-23T10:37:03;13.90;;;3.80;;
17854;SDS011;9053;53.358;6.382;2023-03-23T10:39:41;14.47;;;3.77;;
17854;SDS011;9053;53.358;6.382;2023-03-23T10:42:22;13.97;;;4.40;;
17854;SDS011;9053;53.358;6.382;2023-03-23T10:44:55;14.88;;;4.28;;
17854;SDS011;9053;53.358;6.382;2023-03-23T10:47:26;19.07;;;4.33;;
17854;SDS011;9053;53.358;6.382;2023-03-23T10:50:00;17.13;;;4.47;;
17854;SDS011;9053;53.358;6.382;2023-03-23T10:52:33;19.43;;;5.13;;
17854;SDS011;9053;53.358;6.382;2023-03-23T10:55:07;17.50;;;4.73;;
17854;SDS011;9053;53.358;6.382;2023-03-23T10:57:40;16.52;;;4.53;;
17854;SDS011;9053;53.358;6.382;2023-03-23T11:00:39;18.70;;;4.73;;
17854;SDS011;9053;53.358;6.382;2023-03-23T11:03:24;13.23;;;4.43;;
17854;SDS011;9053;53.358;6.382;2023-03-23T11:06:05;17.93;;;4.47;;
17854;SDS011;9053;53.358;6.382;2023-03-23T11:09:33;21.90;;;4.57;;
17854;SDS011;9053;53.358;6.382;2023-03-23T11:11:50;19.23;;;4.83;;
17854;SDS011;9053;53.358;6.382;2023-03-23T11:15:50;17.23;;;4.30;;
17854;SDS011;9053;53.358;6.382;2023-03-23T11:17:59;16.00;;;4.43;;
17854;SDS011;9053;53.358;6.382;2023-03-23T11:20:48;19.73;;;4.65;;
17854;SDS011;9053;53.358;6.382;2023-03-23T11:23:50;15.20;;;4.00;;
17854;SDS011;9053;53.358;6.382;2023-03-23T11:28:38;15.67;;;5.03;;
17854;SDS011;9053;53.358;6.382;2023-03-23T11:30:46;13.23;;;3.13;;
17854;SDS011;9053;53.358;6.382;2023-03-23T11:33:22;11.80;;;3.50;;
17854;SDS011;9053;53.358;6.382;2023-03-23T11:35:53;12.77;;;3.60;;
17854;SDS011;9053;53.358;6.382;2023-03-23T11:38:24;11.60;;;2.97;;
17854;SDS011;9053;53.358;6.382;2023-03-23T11:40:55;10.13;;;3.50;;
17854;SDS011;9053;53.358;6.382;2023-03-23T11:43:26;9.48;;;2.83;;
17854;SDS011;9053;53.358;6.382;2023-03-23T11:45:59;12.00;;;3.23;;
17854;SDS011;9053;53.358;6.382;2023-03-23T11:48:38;13.98;;;3.72;;
17854;SDS011;9053;53.358;6.382;2023-03-23T11:51:12;13.40;;;3.88;;
17854;SDS011;9053;53.358;6.382;2023-03-23T11:53:47;13.77;;;3.85;;
17854;SDS011;9053;53.358;6.382;2023-03-23T11:56:23;15.77;;;4.23;;
17854;SDS011;9053;53.358;6.382;2023-03-23T11:58:55;13.40;;;3.28;;
17854;SDS011;9053;53.358;6.382;2023-03-23T12:01:32;11.97;;;3.73;;
17854;SDS011;9053;53.358;6.382;2023-03-23T12:04:28;13.87;;;3.47;;
17854;SDS011;9053;53.358;6.382;2023-03-23T12:10:13;12.80;;;3.28;;
17854;SDS011;9053;53.358;6.382;2023-03-23T12:13:21;12.32;;;3.30;;
17854;SDS011;9053;53.358;6.382;2023-03-23T12:16:07;13.90;;;3.53;;
17854;SDS011;9053;53.358;6.382;2023-03-23T12:18:48;11.50;;;3.10;;
17854;SDS011;9053;53.358;6.382;2023-03-23T12:21:32;13.43;;;3.27;;
17854;SDS011;9053;53.358;6.382;2023-03-23T12:24:14;13.07;;;3.23;;
17854;SDS011;9053;53.358;6.382;2023-03-23T12:26:53;9.37;;;3.07;;
17854;SDS011;9053;53.358;6.382;2023-03-23T12:29:33;12.60;;;3.33;;
17854;SDS011;9053;53.358;6.382;2023-03-23T12:32:23;9.98;;;3.55;;
17854;SDS011;9053;53.358;6.382;2023-03-23T12:35:04;12.77;;;3.63;;
17854;SDS011;9053;53.358;6.382;2023-03-23T12:37:52;13.35;;;3.50;;
17854;SDS011;9053;53.358;6.382;2023-03-23T12:40:37;12.40;;;3.00;;
17854;SDS011;9053;53.358;6.382;2023-03-23T12:43:22;16.70;;;3.80;;
17854;SDS011;9053;53.358;6.382;2023-03-23T12:49:16;12.10;;;3.30;;
17854;SDS011;9053;53.358;6.382;2023-03-23T12:51:51;11.23;;;2.90;;
17854;SDS011;9053;53.358;6.382;2023-03-23T12:54:31;11.83;;;3.50;;
17854;SDS011;9053;53.358;6.382;2023-03-23T12:57:06;10.48;;;3.28;;
17854;SDS011;9053;53.358;6.382;2023-03-23T12:59:40;13.18;;;3.40;;
17854;SDS011;9053;53.358;6.382;2023-03-23T13:02:17;12.18;;;3.70;;
17854;SDS011;9053;53.358;6.382;2023-03-23T13:04:52;12.57;;;3.43;;
17854;SDS011;9053;53.358;6.382;2023-03-23T13:07:28;14.43;;;3.45;;
17854;SDS011;9053;53.358;6.382;2023-03-23T13:10:08;13.18;;;3.30;;
17854;SDS011;9053;53.358;6.382;2023-03-23T13:12:46;13.50;;;3.80;;
17854;SDS011;9053;53.358;6.382;2023-03-23T13:15:23;14.83;;;4.20;;
17854;SDS011;9053;53.358;6.382;2023-03-23T13:18:04;15.88;;;3.38;;
17854;SDS011;9053;53.358;6.382;2023-03-23T13:20:47;14.95;;;3.42;;
17854;SDS011;9053;53.358;6.382;2023-03-23T13:23:24;12.73;;;3.73;;
17854;SDS011;9053;53.358;6.382;2023-03-23T13:26:03;11.67;;;3.70;;
17854;SDS011;9053;53.358;6.382;2023-03-23T13:28:44;16.95;;;4.60;;
17854;SDS011;9053;53.358;6.382;2023-03-23T13:31:21;13.07;;;3.30;;
17854;SDS011;9053;53.358;6.382;2023-03-23T13:34:01;12.25;;;3.15;;
17854;SDS011;9053;53.358;6.382;2023-03-23T13:36:35;12.03;;;3.50;;
17854;SDS011;9053;53.358;6.382;2023-03-23T13:39:18;15.13;;;3.50;;
17854;SDS011;9053;53.358;6.382;2023-03-23T13:42:01;13.35;;;3.70;;
17854;SDS011;9053;53.358;6.382;2023-03-23T13:44:42;16.17;;;3.87;;
17854;SDS011;9053;53.358;6.382;2023-03-23T13:47:20;17.30;;;3.93;;
17854;SDS011;9053;53.358;6.382;2023-03-23T13:49:59;11.32;;;3.38;;
17854;SDS011;9053;53.358;6.382;2023-03-23T13:52:38;17.88;;;3.83;;
17854;SDS011;9053;53.358;6.382;2023-03-23T13:55:30;12.80;;;3.90;;
17854;SDS011;9053;53.358;6.382;2023-03-23T13:58:24;13.27;;;3.90;;
17854;SDS011;9053;53.358;6.382;2023-03-23T14:01:10;16.10;;;3.90;;
17854;SDS011;9053;53.358;6.382;2023-03-23T14:03:43;17.40;;;3.88;;
17854;SDS011;9053;53.358;6.382;2023-03-23T14:06:18;13.65;;;3.58;;
17854;SDS011;9053;53.358;6.382;2023-03-23T14:08:52;15.48;;;4.22;;
17854;SDS011;9053;53.358;6.382;2023-03-23T14:11:28;14.10;;;3.93;;
17854;SDS011;9053;53.358;6.382;2023-03-23T14:14:14;12.55;;;4.00;;
17854;SDS011;9053;53.358;6.382;2023-03-23T14:16:50;14.18;;;4.22;;
17854;SDS011;9053;53.358;6.382;2023-03-23T14:19:22;14.07;;;3.75;;
17854;SDS011;9053;53.358;6.382;2023-03-23T14:21:59;14.13;;;3.88;;
17854;SDS011;9053;53.358;6.382;2023-03-23T14:24:31;11.50;;;3.55;;
17854;SDS011;9053;53.358;6.382;2023-03-23T14:27:02;12.52;;;3.72;;
17854;SDS011;9053;53.358;6.382;2023-03-23T14:29:42;14.68;;;3.65;;
17854;SDS011;9053;53.358;6.382;2023-03-23T14:32:13;18.00;;;3.30;;
17854;SDS011;9053;53.358;6.382;2023-03-23T14:34:47;11.95;;;2.97;;
17854;SDS011;9053;53.358;6.382;2023-03-23T14:37:18;12.35;;;3.33;;
17854;SDS011;9053;53.358;6.382;2023-03-23T14:39:50;11.75;;;2.80;;
17854;SDS011;9053;53.358;6.382;2023-03-23T14:42:24;10.98;;;3.20;;
17854;SDS011;9053;53.358;6.382;2023-03-23T14:45:01;13.90;;;3.08;;
17854;SDS011;9053;53.358;6.382;2023-03-23T14:47:35;11.37;;;2.97;;
17854;SDS011;9053;53.358;6.382;2023-03-23T14:50:21;13.15;;;3.00;;
17854;SDS011;9053;53.358;6.382;2023-03-23T14:52:56;9.93;;;2.90;;
17854;SDS011;9053;53.358;6.382;2023-03-23T14:55:30;12.55;;;3.55;;
17854;SDS011;9053;53.358;6.382;2023-03-23T14:58:06;14.13;;;3.30;;
17854;SDS011;9053;53.358;6.382;2023-03-23T15:00:41;12.50;;;3.40;;
17854;SDS011;9053;53.358;6.382;2023-03-23T15:03:15;12.13;;;3.17;;
17854;SDS011;9053;53.358;6.382;2023-03-23T15:05:47;10.80;;;2.65;;
17854;SDS011;9053;53.358;6.382;2023-03-23T15:08:20;8.52;;;3.15;;
17854;SDS011;9053;53.358;6.382;2023-03-23T15:11:08;12.90;;;3.05;;
17854;SDS011;9053;53.358;6.382;2023-03-23T15:13:44;10.82;;;2.88;;
17854;SDS011;9053;53.358;6.382;2023-03-23T15:16:21;12.03;;;3.10;;
17854;SDS011;9053;53.358;6.382;2023-03-23T15:18:53;12.00;;;2.92;;
17854;SDS011;9053;53.358;6.382;2023-03-23T15:21:28;11.27;;;2.47;;
17854;SDS011;9053;53.358;6.382;2023-03-23T15:24:00;9.97;;;2.80;;
17854;SDS011;9053;53.358;6.382;2023-03-23T15:26:32;13.07;;;2.97;;
17854;SDS011;9053;53.358;6.382;2023-03-23T15:29:14;9.27;;;2.87;;
17854;SDS011;9053;53.358;6.382;2023-03-23T15:31:55;9.88;;;2.58;;
17854;SDS011;9053;53.358;6.382;2023-03-23T15:34:29;10.13;;;2.78;;
17854;SDS011;9053;53.358;6.382;2023-03-23T15:37:13;9.55;;;2.33;;
17854;SDS011;9053;53.358;6.382;2023-03-23T15:39:49;11.45;;;2.42;;
17854;SDS011;9053;53.358;6.382;2023-03-23T15:42:21;9.63;;;2.57;;
17854;SDS011;9053;53.358;6.382;2023-03-23T15:44:55;13.20;;;2.75;;
17854;SDS011;9053;53.358;6.382;2023-03-23T15:47:44;7.82;;;2.40;;
17854;SDS011;9053;53.358;6.382;2023-03-23T15:50:16;13.27;;;3.13;;
17854;SDS011;9053;53.358;6.382;2023-03-23T15:52:47;9.60;;;2.20;;
17854;SDS011;9053;53.358;6.382;2023-03-23T15:55:23;11.70;;;3.05;;
17854;SDS011;9053;53.358;6.382;2023-03-23T15:57:55;9.40;;;2.60;;
17854;SDS011;9053;53.358;6.382;2023-03-23T16:00:27;13.73;;;3.20;;
17854;SDS011;9053;53.358;6.382;2023-03-23T16:03:00;10.43;;;2.83;;
17854;SDS011;9053;53.358;6.382;2023-03-23T16:05:34;11.53;;;3.33;;
17854;SDS011;9053;53.358;6.382;2023-03-23T16:08:04;16.55;;;3.90;;
17854;SDS011;9053;53.358;6.382;2023-03-23T16:10:39;14.10;;;3.67;;